createdAt,value
2022-09-25T00:01:00.760Z,80.30
2022-09-25T00:03:28.984Z,80.30
2022-09-25T00:06:23.414Z,80.20
2022-09-25T00:08:50.794Z,80.10
2022-09-25T00:11:20.372Z,80.40
2022-09-25T00:13:48.232Z,80.40
2022-09-25T00:16:21.119Z,80.40
2022-09-25T00:19:06.629Z,80.50
2022-09-25T00:21:33.871Z,80.30
2022-09-25T00:24:03.524Z,80.30
2022-09-25T00:26:33.072Z,80.50
2022-09-25T00:29:02.973Z,80.30
2022-09-25T00:31:30.866Z,80.40
2022-09-25T00:33:59.941Z,80.40
2022-09-25T00:36:26.728Z,80.50
2022-09-25T00:38:54.260Z,80.40
2022-09-25T00:41:23.188Z,80.50
2022-09-25T00:43:52.637Z,81.10
2022-09-25T00:46:38.821Z,80.10
2022-09-25T00:49:17.510Z,80.10
2022-09-25T00:51:54.779Z,80.30
2022-09-25T00:54:34.494Z,80.40
2022-09-25T00:57:05.891Z,80.40
2022-09-25T00:59:40.098Z,80.30
2022-09-25T01:02:09.093Z,80.30
2022-09-25T01:04:38.071Z,80.40
2022-09-25T01:07:05.108Z,80.40
2022-09-25T01:09:31.905Z,80.40
2022-09-25T01:11:58.547Z,80.40
2022-09-25T01:14:26.848Z,80.50
2022-09-25T01:16:59.909Z,80.30
2022-09-25T01:19:53.406Z,80.40
2022-09-25T01:22:45.656Z,80.30
2022-09-25T01:25:34.198Z,80.20
2022-09-25T01:28:19.516Z,80.40
2022-09-25T01:30:58.919Z,80.30
2022-09-25T01:33:35.244Z,80.30
2022-09-25T01:36:34.844Z,80.40
2022-09-25T01:39:16.401Z,80.20
2022-09-25T01:42:00.511Z,80.00
2022-09-25T01:44:32.356Z,80.10
2022-09-25T01:47:25.084Z,80.30
2022-09-25T01:50:02.293Z,80.00
2022-09-25T01:52:35.688Z,80.30
2022-09-25T01:55:11.939Z,80.20
2022-09-25T01:57:44.454Z,81.00
2022-09-25T02:00:13.458Z,80.20
2022-09-25T02:02:46.432Z,80.10
2022-09-25T02:05:21.780Z,80.30
2022-09-25T02:07:55.109Z,80.20
2022-09-25T02:10:45.022Z,79.90
2022-09-25T02:13:15.556Z,79.90
2022-09-25T02:15:58.398Z,80.10
2022-09-25T02:18:46.561Z,80.20
2022-09-25T02:21:43.612Z,80.10
2022-09-25T02:24:13.167Z,80.00
2022-09-25T02:26:40.086Z,80.20
2022-09-25T02:29:08.088Z,80.20
2022-09-25T02:31:44.405Z,80.20
2022-09-25T02:34:15.024Z,80.00
2022-09-25T02:36:43.702Z,80.00
2022-09-25T02:39:13.560Z,79.90
2022-09-25T02:41:45.937Z,79.90
2022-09-25T02:44:21.423Z,79.90
2022-09-25T02:47:13.462Z,79.90
2022-09-25T02:49:59.285Z,79.90
2022-09-25T02:53:05.573Z,79.80
2022-09-25T02:55:51.138Z,79.80
2022-09-25T02:58:35.394Z,80.10
2022-09-25T03:01:05.461Z,80.00
2022-09-25T03:03:33.771Z,80.00
2022-09-25T03:06:02.702Z,79.80
2022-09-25T03:08:38.857Z,79.70
2022-09-25T03:11:07.627Z,79.70
2022-09-25T03:13:35.069Z,79.80
2022-09-25T03:16:11.492Z,79.80
2022-09-25T03:18:38.247Z,79.40
2022-09-25T03:21:05.416Z,79.50
2022-09-25T03:23:32.353Z,79.60
2022-09-25T03:25:59.311Z,79.60
2022-09-25T03:28:26.165Z,79.60
2022-09-25T03:31:11.854Z,79.60
2022-09-25T03:33:41.164Z,79.70
2022-09-25T03:36:11.532Z,79.90
2022-09-25T03:38:40.467Z,79.70
2022-09-25T03:41:09.425Z,79.50
2022-09-25T03:43:37.337Z,79.50
2022-09-25T03:46:09.759Z,79.60
2022-09-25T03:48:37.028Z,79.80
2022-09-25T03:51:04.775Z,79.80
2022-09-25T03:53:33.402Z,79.70
2022-09-25T03:56:01.955Z,79.50
2022-09-25T03:58:29.403Z,79.60
2022-09-25T04:00:57.379Z,79.70
2022-09-25T04:03:32.689Z,79.80
2022-09-25T04:06:02.152Z,79.90
2022-09-25T04:08:28.974Z,79.90
2022-09-25T04:10:59.203Z,80.10
2022-09-25T04:13:29.873Z,79.90
2022-09-25T04:15:58.319Z,79.90
2022-09-25T04:18:25.757Z,80.10
2022-09-25T04:20:52.404Z,80.00
2022-09-25T04:23:19.084Z,80.10
2022-09-25T04:25:45.816Z,80.10
2022-09-25T04:28:12.558Z,80.10
2022-09-25T04:30:39.279Z,80.20
2022-09-25T04:33:24.546Z,80.20
2022-09-25T04:35:51.273Z,80.20
2022-09-25T04:38:17.977Z,80.30
2022-09-25T04:40:46.071Z,80.30
2022-09-25T04:43:12.923Z,81.00
2022-09-25T04:45:39.669Z,81.10
2022-09-25T04:48:06.401Z,80.20
2022-09-25T04:50:34.133Z,80.00
2022-09-25T04:53:01.059Z,80.20
2022-09-25T04:55:28.127Z,80.10
2022-09-25T04:57:59.097Z,80.10
2022-09-25T05:00:28.988Z,80.20
2022-09-25T05:02:55.992Z,80.20
2022-09-25T05:05:27.273Z,80.10
2022-09-25T05:07:54.700Z,80.10
2022-09-25T05:10:22.232Z,80.10
2022-09-25T05:12:54.214Z,80.10
2022-09-25T05:15:21.109Z,80.00
2022-09-25T05:17:47.762Z,79.90
2022-09-25T05:20:14.490Z,80.10
2022-09-25T05:22:41.161Z,80.00
2022-09-25T05:25:08.560Z,80.00
2022-09-25T05:27:35.689Z,79.80
2022-09-25T05:30:02.491Z,79.70
2022-09-25T05:32:30.963Z,79.80
2022-09-25T05:34:57.694Z,79.80
2022-09-25T05:37:24.500Z,79.80
2022-09-25T05:39:51.169Z,79.80
2022-09-25T05:42:19.324Z,80.00
2022-09-25T05:44:46.437Z,80.00
2022-09-25T05:47:13.181Z,80.00
2022-09-25T05:49:39.856Z,79.90
2022-09-25T05:52:06.700Z,79.90
2022-09-25T05:54:33.347Z,80.00
2022-09-25T05:57:00.077Z,79.90
2022-09-25T05:59:26.706Z,79.80
2022-09-25T06:01:53.450Z,79.60
2022-09-25T06:04:20.316Z,79.80
2022-09-25T06:06:46.955Z,79.90
2022-09-25T06:09:13.607Z,79.90
2022-09-25T06:11:41.158Z,79.90
2022-09-25T06:14:07.894Z,79.80
2022-09-25T06:16:35.142Z,79.90
2022-09-25T06:19:01.821Z,80.00
2022-09-25T06:21:28.468Z,80.00
2022-09-25T06:23:55.864Z,80.00
2022-09-25T06:26:23.153Z,79.80
2022-09-25T06:28:49.865Z,80.10
2022-09-25T06:31:16.590Z,80.10
2022-09-25T06:33:43.851Z,80.10
2022-09-25T06:36:10.504Z,80.20
2022-09-25T06:38:37.220Z,80.10
2022-09-25T06:41:04.020Z,80.10
2022-09-25T06:43:31.285Z,80.20
2022-09-25T06:46:03.029Z,80.20
2022-09-25T06:48:30.300Z,80.40
2022-09-25T06:51:01.497Z,80.40
2022-09-25T06:53:28.256Z,80.50
2022-09-25T06:55:58.889Z,80.30
2022-09-25T06:58:26.958Z,80.50
2022-09-25T07:00:55.787Z,80.70
2022-09-25T07:03:41.768Z,80.70
2022-09-25T07:06:10.890Z,81.00
2022-09-25T07:08:37.781Z,82.20
2022-09-25T07:11:05.346Z,81.50
2022-09-25T07:13:34.981Z,81.60
2022-09-25T07:16:06.643Z,81.80
2022-09-25T07:18:34.058Z,81.80
2022-09-25T07:21:29.372Z,82.00
2022-09-25T07:23:58.233Z,82.50
2022-09-25T07:26:28.208Z,82.80
2022-09-25T07:29:00.366Z,82.80
2022-09-25T07:31:29.701Z,83.00
2022-09-25T07:33:58.655Z,83.40
2022-09-25T07:36:25.447Z,83.50
2022-09-25T07:38:52.946Z,83.80
2022-09-25T07:41:22.598Z,83.90
2022-09-25T07:44:17.616Z,84.60
2022-09-25T07:46:43.438Z,84.80
2022-09-25T07:49:10.286Z,85.00
2022-09-25T07:51:37.044Z,85.10
2022-09-25T07:54:03.891Z,84.70
2022-09-25T07:56:30.646Z,85.00
2022-09-25T07:58:57.280Z,84.60
2022-09-25T08:01:23.970Z,84.30
2022-09-25T08:03:50.799Z,84.10
2022-09-25T08:06:17.492Z,84.20
2022-09-25T08:08:44.419Z,84.20
2022-09-25T08:11:16.930Z,84.10
2022-09-25T08:13:44.528Z,84.00
2022-09-25T08:16:17.414Z,83.70
2022-09-25T08:18:46.495Z,83.60
2022-09-25T08:21:14.862Z,83.40
2022-09-25T08:23:47.435Z,83.00
2022-09-25T08:26:15.351Z,82.70
2022-09-25T08:28:42.297Z,82.70
2022-09-25T08:31:09.167Z,82.40
2022-09-25T08:33:37.341Z,82.20
2022-09-25T08:36:05.665Z,81.90
2022-09-25T08:38:33.271Z,81.80
2022-09-25T08:41:13.304Z,81.70
2022-09-25T08:44:03.826Z,81.00
2022-09-25T08:46:59.959Z,81.00
2022-09-25T08:49:32.511Z,80.60
2022-09-25T08:52:02.993Z,81.40
2022-09-25T08:54:31.972Z,80.20
2022-09-25T08:57:21.120Z,78.40
2022-09-25T08:59:59.752Z,77.80
2022-09-25T09:02:46.301Z,78.00
2022-09-25T09:05:31.706Z,78.10
2022-09-25T09:08:15.401Z,77.60
2022-09-25T09:10:52.532Z,77.10
2022-09-25T09:13:22.449Z,76.70
2022-09-25T09:15:58.157Z,75.80
2022-09-25T09:18:30.432Z,75.20
2022-09-25T09:21:01.453Z,74.40
2022-09-25T09:23:42.031Z,72.60
2022-09-25T09:26:40.270Z,73.40
2022-09-25T09:29:06.881Z,72.80
2022-09-25T09:32:03.319Z,70.30
2022-09-25T09:35:15.155Z,70.00
2022-09-25T09:38:16.313Z,70.20
2022-09-25T09:41:12.939Z,70.20
2022-09-25T09:43:58.288Z,70.00
2022-09-25T09:46:27.681Z,69.80
2022-09-25T09:49:05.314Z,69.60
2022-09-25T09:52:00.659Z,70.00
2022-09-25T09:54:54.853Z,70.20
2022-09-25T09:57:31.216Z,70.80
2022-09-25T10:00:12.221Z,72.00
2022-09-25T10:03:03.444Z,72.60
2022-09-25T10:05:39.622Z,72.10
2022-09-25T10:08:06.270Z,71.80
2022-09-25T10:10:38.821Z,71.10
2022-09-25T10:13:20.347Z,70.60
2022-09-25T10:15:52.556Z,68.00
2022-09-25T10:18:21.613Z,65.60
2022-09-25T10:20:59.873Z,67.00
2022-09-25T10:23:46.106Z,65.80
2022-09-25T10:26:28.384Z,64.50
2022-09-25T10:28:57.515Z,63.80
2022-09-25T10:31:28.137Z,65.60
2022-09-25T10:34:03.961Z,65.70
2022-09-25T10:36:32.629Z,66.50
2022-09-25T10:39:17.976Z,66.30
2022-09-25T10:41:47.244Z,65.80
2022-09-25T10:44:23.463Z,65.20
2022-09-25T10:47:08.586Z,62.90
2022-09-25T10:50:05.067Z,62.90
2022-09-25T10:52:52.952Z,62.70
2022-09-25T10:55:28.670Z,61.40
2022-09-25T10:58:09.334Z,61.00
2022-09-25T11:00:58.314Z,61.20
2022-09-25T11:04:00.557Z,60.40
2022-09-25T11:06:34.601Z,61.30
2022-09-25T11:09:07.920Z,62.30
2022-09-25T11:11:36.154Z,61.00
2022-09-25T11:14:06.051Z,60.70
2022-09-25T11:17:05.865Z,61.50
2022-09-25T11:19:35.704Z,60.40
2022-09-25T11:22:11.260Z,57.70
2022-09-25T11:25:02.936Z,58.50
2022-09-25T11:27:43.662Z,58.30
2022-09-25T11:30:12.759Z,58.10
2022-09-25T11:32:52.467Z,58.90
2022-09-25T11:35:34.735Z,58.60
2022-09-25T11:38:09.758Z,56.20
2022-09-25T11:41:04.538Z,55.90
2022-09-25T11:43:57.126Z,56.00
2022-09-25T11:46:39.693Z,55.70
2022-09-25T11:49:34.331Z,55.80
2022-09-25T11:52:30.101Z,55.30
2022-09-25T11:55:27.315Z,51.50
2022-09-25T11:58:41.211Z,53.70
2022-09-25T12:01:24.765Z,52.20
2022-09-25T12:04:12.736Z,51.90
2022-09-25T12:07:00.619Z,53.00
2022-09-25T12:09:42.513Z,53.20
2022-09-25T12:12:39.617Z,53.60
2022-09-25T12:15:20.624Z,53.10
2022-09-25T12:18:13.661Z,53.30
2022-09-25T12:20:51.098Z,54.60
2022-09-25T12:23:31.962Z,53.90
2022-09-25T12:26:36.053Z,53.30
2022-09-25T12:29:28.161Z,53.10
2022-09-25T12:32:22.155Z,52.90
2022-09-25T12:35:10.939Z,51.80
2022-09-25T12:37:54.658Z,51.70
2022-09-25T12:40:40.202Z,52.20
2022-09-25T12:43:11.243Z,53.40
2022-09-25T12:45:51.324Z,55.20
2022-09-25T12:48:26.177Z,57.80
2022-09-25T12:51:25.259Z,57.30
2022-09-25T12:54:00.278Z,59.30
2022-09-25T12:56:33.807Z,59.10
2022-09-25T12:59:07.417Z,60.60
2022-09-25T13:01:37.288Z,61.40
2022-09-25T13:04:18.801Z,62.10
2022-09-25T13:07:12.553Z,63.00
2022-09-25T13:09:45.928Z,63.60
2022-09-25T13:12:35.358Z,65.00
2022-09-25T13:15:16.021Z,65.50
2022-09-25T13:17:43.078Z,65.90
2022-09-25T13:20:31.245Z,66.20
2022-09-25T13:23:03.105Z,66.50
2022-09-25T13:25:31.470Z,67.20
2022-09-25T13:28:07.258Z,67.50
2022-09-25T13:30:34.028Z,67.90
2022-09-25T13:33:03.243Z,68.80
2022-09-25T13:35:33.315Z,69.20
2022-09-25T13:38:36.587Z,69.50
2022-09-25T13:41:14.013Z,69.50
2022-09-25T13:43:40.862Z,69.80
2022-09-25T13:46:21.538Z,70.00
2022-09-25T13:48:49.348Z,70.20
2022-09-25T13:51:21.914Z,71.00
2022-09-25T13:53:58.903Z,71.00
2022-09-25T13:56:46.234Z,71.40
2022-09-25T13:59:13.871Z,71.00
2022-09-25T14:01:47.374Z,71.00
2022-09-25T14:04:14.131Z,71.00
2022-09-25T14:06:49.996Z,71.20
2022-09-25T14:09:22.728Z,71.50
2022-09-25T14:12:12.588Z,71.60
2022-09-25T14:14:45.291Z,71.50
2022-09-25T14:17:16.603Z,71.40
2022-09-25T14:19:48.490Z,71.80
2022-09-25T14:22:47.154Z,72.10
2022-09-25T14:25:33.802Z,72.00
2022-09-25T14:28:02.128Z,72.20
2022-09-25T14:30:30.387Z,71.80
2022-09-25T14:33:28.113Z,72.00
2022-09-25T14:35:55.028Z,71.90
2022-09-25T14:39:09.035Z,71.70
2022-09-25T14:41:47.889Z,71.70
2022-09-25T14:44:44.645Z,73.00
2022-09-25T14:47:14.247Z,72.10
2022-09-25T14:49:45.154Z,71.90
2022-09-25T14:52:16.426Z,71.10
2022-09-25T14:54:46.493Z,71.30
2022-09-25T14:57:20.909Z,71.10
2022-09-25T14:59:55.030Z,70.50
2022-09-25T15:02:33.880Z,71.00
2022-09-25T15:05:27.192Z,71.00
2022-09-25T15:08:02.173Z,71.00
2022-09-25T15:10:37.795Z,70.80
2022-09-25T15:13:20.218Z,70.60
2022-09-25T15:16:12.378Z,70.30
2022-09-25T15:18:42.007Z,70.80
2022-09-25T15:21:32.649Z,69.60
2022-09-25T15:24:07.009Z,68.90
2022-09-25T15:26:39.102Z,68.60
2022-09-25T15:29:18.104Z,68.40
2022-09-25T15:31:50.792Z,68.20
2022-09-25T15:34:23.725Z,68.40
2022-09-25T15:36:51.482Z,68.30
2022-09-25T15:39:26.014Z,68.40
2022-09-25T15:41:52.800Z,68.40
2022-09-25T15:44:23.356Z,68.50
2022-09-25T15:46:57.301Z,68.60
2022-09-25T15:49:33.088Z,68.80
2022-09-25T15:52:22.794Z,69.10
2022-09-25T15:54:49.712Z,69.20
2022-09-25T15:57:25.841Z,69.40
2022-09-25T16:00:16.300Z,69.60
2022-09-25T16:03:12.412Z,69.70
2022-09-25T16:05:46.456Z,69.90
2022-09-25T16:08:36.712Z,70.30
2022-09-25T16:11:17.333Z,70.40
2022-09-25T16:13:48.451Z,70.70
2022-09-25T16:16:20.568Z,71.00
2022-09-25T16:18:47.686Z,71.00
2022-09-25T16:21:16.345Z,71.00
2022-09-25T16:23:43.505Z,70.70
2022-09-25T16:26:22.163Z,70.80
2022-09-25T16:29:12.015Z,70.80
2022-09-25T16:31:40.732Z,71.00
2022-09-25T16:34:25.704Z,71.10
2022-09-25T16:36:54.549Z,71.10
2022-09-25T16:39:33.474Z,71.30
2022-09-25T16:42:25.999Z,71.10
2022-09-25T16:45:14.760Z,71.40
2022-09-25T16:47:46.825Z,71.70
2022-09-25T16:50:16.346Z,72.20
2022-09-25T16:52:43.637Z,72.30
2022-09-25T16:55:23.243Z,72.30
2022-09-25T16:57:51.574Z,72.40
2022-09-25T17:00:23.466Z,72.70
2022-09-25T17:02:50.747Z,72.80
2022-09-25T17:05:27.494Z,72.90
2022-09-25T17:07:56.436Z,73.00
2022-09-25T17:10:26.125Z,73.10
2022-09-25T17:12:54.282Z,73.20
2022-09-25T17:15:36.075Z,73.20
2022-09-25T17:18:06.573Z,73.30
2022-09-25T17:20:33.912Z,73.50
2022-09-25T17:23:00.551Z,73.80
2022-09-25T17:26:02.462Z,73.90
2022-09-25T17:28:29.586Z,74.00
2022-09-25T17:30:56.443Z,74.30
2022-09-25T17:33:23.673Z,74.40
2022-09-25T17:35:52.021Z,74.50
2022-09-25T17:38:19.048Z,74.60
2022-09-25T17:40:49.493Z,74.80
2022-09-25T17:43:16.455Z,74.80
2022-09-25T17:45:52.718Z,75.10
2022-09-25T17:48:24.530Z,75.10
2022-09-25T17:50:52.628Z,75.30
2022-09-25T17:53:21.685Z,75.40
2022-09-25T17:55:53.426Z,75.40
2022-09-25T17:58:22.384Z,75.60
2022-09-25T18:00:49.720Z,75.70
2022-09-25T18:03:16.898Z,75.60
2022-09-25T18:05:44.493Z,75.70
2022-09-25T18:08:12.238Z,75.80
2022-09-25T18:10:39.525Z,75.90
2022-09-25T18:13:12.082Z,76.00
2022-09-25T18:15:47.330Z,76.10
2022-09-25T18:18:14.009Z,76.10
2022-09-25T18:20:59.191Z,76.20
2022-09-25T18:23:25.838Z,76.50
2022-09-25T18:25:53.579Z,76.60
2022-09-25T18:28:20.484Z,76.40
2022-09-25T18:30:47.265Z,76.50
2022-09-25T18:33:13.984Z,76.70
2022-09-25T18:35:42.760Z,76.50
2022-09-25T18:38:09.504Z,76.50
2022-09-25T18:40:36.213Z,76.60
2022-09-25T18:43:02.958Z,76.50
2022-09-25T18:45:29.682Z,76.40
2022-09-25T18:47:56.371Z,76.60
2022-09-25T18:50:23.033Z,77.60
2022-09-25T18:52:50.590Z,76.70
2022-09-25T18:55:17.546Z,76.70
2022-09-25T18:57:44.235Z,76.80
2022-09-25T19:00:11.726Z,76.80
2022-09-25T19:02:42.476Z,76.80
2022-09-25T19:05:09.889Z,76.90
2022-09-25T19:07:36.808Z,76.90
2022-09-25T19:10:09.174Z,77.10
2022-09-25T19:12:35.985Z,77.30
2022-09-25T19:15:04.666Z,77.30
2022-09-25T19:17:31.987Z,77.40
2022-09-25T19:19:59.025Z,77.30
2022-09-25T19:22:25.748Z,77.30
2022-09-25T19:24:56.702Z,77.30
2022-09-25T19:27:25.363Z,77.40
2022-09-25T19:29:52.276Z,77.60
2022-09-25T19:32:19.323Z,78.50
2022-09-25T19:34:46.244Z,78.50
2022-09-25T19:37:12.942Z,77.60
2022-09-25T19:39:58.126Z,77.40
2022-09-25T19:42:27.925Z,77.30
2022-09-25T19:44:55.894Z,77.50
2022-09-25T19:47:23.397Z,77.50
2022-09-25T19:49:50.059Z,77.50
2022-09-25T19:52:17.102Z,77.70
2022-09-25T19:54:43.744Z,77.80
2022-09-25T19:57:10.431Z,77.50
2022-09-25T19:59:37.199Z,77.60
2022-09-25T20:02:03.921Z,77.60
2022-09-25T20:04:30.690Z,77.50
2022-09-25T20:06:58.751Z,77.50
2022-09-25T20:09:26.759Z,77.50
2022-09-25T20:11:53.741Z,77.60
2022-09-25T20:14:25.257Z,77.50
2022-09-25T20:16:53.908Z,77.50
2022-09-25T20:19:21.495Z,77.80
2022-09-25T20:21:48.823Z,77.60
2022-09-25T20:24:15.738Z,77.90
2022-09-25T20:26:42.426Z,77.80
2022-09-25T20:29:12.363Z,77.90
2022-09-25T20:31:41.863Z,77.90
2022-09-25T20:34:16.601Z,77.90
2022-09-25T20:36:43.748Z,77.90
2022-09-25T20:39:10.682Z,77.90
2022-09-25T20:41:38.069Z,77.90
2022-09-25T20:44:05.869Z,77.70
2022-09-25T20:46:33.390Z,77.90
2022-09-25T20:49:00.616Z,78.20
2022-09-25T20:51:29.713Z,78.10
2022-09-25T20:53:59.518Z,77.90
2022-09-25T20:56:27.519Z,78.20
2022-09-25T20:58:55.336Z,78.30
2022-09-25T21:01:24.840Z,78.10
2022-09-25T21:03:52.729Z,78.20
2022-09-25T21:06:22.718Z,78.40
2022-09-25T21:08:54.630Z,78.40
2022-09-25T21:11:22.644Z,78.40
2022-09-25T21:13:53.818Z,79.40
2022-09-25T21:16:22.170Z,78.30
2022-09-25T21:18:54.832Z,78.30
2022-09-25T21:21:23.064Z,78.50
2022-09-25T21:23:54.145Z,79.40
2022-09-25T21:26:23.148Z,78.60
2022-09-25T21:28:52.214Z,78.70
2022-09-25T21:31:21.771Z,78.70
2022-09-25T21:33:54.337Z,78.80
2022-09-25T21:36:22.318Z,78.70
2022-09-25T21:38:49.380Z,78.90
2022-09-25T21:41:21.529Z,78.90
2022-09-25T21:43:52.254Z,78.90
2022-09-25T21:46:20.233Z,78.90
2022-09-25T21:48:55.530Z,78.80
2022-09-25T21:51:24.416Z,78.60
2022-09-25T21:53:53.543Z,78.90
2022-09-25T21:56:22.649Z,78.80
2022-09-25T21:58:49.807Z,78.80
2022-09-25T22:01:20.326Z,78.80
2022-09-25T22:03:49.732Z,78.80
2022-09-25T22:06:22.653Z,78.80
2022-09-25T22:08:52.224Z,78.70
2022-09-25T22:11:20.157Z,78.60
2022-09-25T22:13:48.714Z,78.70
2022-09-25T22:16:21.355Z,78.70
2022-09-25T22:18:58.445Z,78.70
2022-09-25T22:21:28.885Z,78.80
2022-09-25T22:23:56.169Z,79.40
2022-09-25T22:26:23.455Z,78.50
2022-09-25T22:28:50.426Z,78.40
2022-09-25T22:31:23.011Z,78.70
2022-09-25T22:33:54.752Z,78.70
2022-09-25T22:36:21.705Z,78.80
2022-09-25T22:38:48.437Z,78.90
2022-09-25T22:41:15.137Z,78.90
2022-09-25T22:43:42.541Z,79.00
2022-09-25T22:46:11.474Z,78.80
2022-09-25T22:48:39.193Z,78.80
2022-09-25T22:51:13.005Z,79.00
2022-09-25T22:53:41.281Z,79.00
2022-09-25T22:56:17.930Z,79.10
2022-09-25T22:58:47.326Z,79.00
2022-09-25T23:01:25.305Z,78.90
2022-09-25T23:04:01.076Z,79.00
2022-09-25T23:06:29.992Z,79.20
2022-09-25T23:08:59.591Z,79.30
2022-09-25T23:11:27.242Z,79.30
2022-09-25T23:14:00.442Z,79.60
2022-09-25T23:16:27.854Z,79.50
2022-09-25T23:18:58.730Z,80.60
2022-09-25T23:21:26.464Z,79.60
2022-09-25T23:23:57.926Z,79.40
2022-09-25T23:26:25.070Z,79.50
2022-09-25T23:28:52.121Z,79.70
2022-09-25T23:31:19.258Z,79.80
2022-09-25T23:33:46.323Z,79.80
2022-09-25T23:36:20.188Z,79.90
2022-09-25T23:38:48.065Z,79.80
2022-09-25T23:41:25.286Z,79.80
2022-09-25T23:43:53.250Z,79.90
2022-09-25T23:46:23.378Z,79.80
2022-09-25T23:48:50.516Z,79.70
2022-09-25T23:51:18.734Z,80.10
2022-09-25T23:53:46.486Z,80.10
2022-09-25T23:56:16.021Z,80.40
2022-09-25T23:58:43.622Z,80.40
